sensor_id;sensor_type;location;lat;lon;timestamp;P1;durP1;ratioP1;P2;durP2;ratioP2
73321;SDS011;61549;37.044;22.128;2023-04-24T00:00:15;8.70;;;4.30;;
73321;SDS011;61549;37.044;22.128;2023-04-24T00:02:42;5.55;;;4.55;;
73321;SDS011;61549;37.044;22.128;2023-04-24T00:05:13;7.45;;;5.03;;
73321;SDS011;61549;37.044;22.128;2023-04-24T00:07:41;6.65;;;4.45;;
73321;SDS011;61549;37.044;22.128;2023-04-24T00:10:07;8.25;;;4.70;;
73321;SDS011;61549;37.044;22.128;2023-04-24T00:12:33;11.82;;;4.40;;
73321;SDS011;61549;37.044;22.128;2023-04-24T00:14:59;5.95;;;4.18;;
73321;SDS011;61549;37.044;22.128;2023-04-24T00:17:28;7.45;;;4.43;;
73321;SDS011;61549;37.044;22.128;2023-04-24T00:19:54;6.18;;;4.60;;
73321;SDS011;61549;37.044;22.128;2023-04-24T00:22:26;6.88;;;4.65;;
73321;SDS011;61549;37.044;22.128;2023-04-24T00:24:55;7.85;;;4.18;;
73321;SDS011;61549;37.044;22.128;2023-04-24T00:27:22;6.88;;;4.65;;
73321;SDS011;61549;37.044;22.128;2023-04-24T00:29:48;7.45;;;4.35;;
73321;SDS011;61549;37.044;22.128;2023-04-24T00:32:14;6.70;;;4.35;;
73321;SDS011;61549;37.044;22.128;2023-04-24T00:34:40;6.07;;;4.10;;
73321;SDS011;61549;37.044;22.128;2023-04-24T00:37:07;5.93;;;4.30;;
73321;SDS011;61549;37.044;22.128;2023-04-24T00:39:32;6.80;;;4.35;;
73321;SDS011;61549;37.044;22.128;2023-04-24T00:41:58;7.72;;;4.50;;
73321;SDS011;61549;37.044;22.128;2023-04-24T00:44:24;5.57;;;4.38;;
73321;SDS011;61549;37.044;22.128;2023-04-24T00:46:52;7.95;;;4.50;;
73321;SDS011;61549;37.044;22.128;2023-04-24T00:49:20;6.85;;;4.50;;
73321;SDS011;61549;37.044;22.128;2023-04-24T00:51:46;8.02;;;4.07;;
73321;SDS011;61549;37.044;22.128;2023-04-24T00:54:14;4.97;;;4.28;;
73321;SDS011;61549;37.044;22.128;2023-04-24T00:56:41;7.22;;;4.63;;
73321;SDS011;61549;37.044;22.128;2023-04-24T00:59:07;6.22;;;4.32;;
73321;SDS011;61549;37.044;22.128;2023-04-24T01:01:34;7.45;;;4.28;;
73321;SDS011;61549;37.044;22.128;2023-04-24T01:04:00;6.45;;;3.90;;
73321;SDS011;61549;37.044;22.128;2023-04-24T01:06:28;4.85;;;4.15;;
73321;SDS011;61549;37.044;22.128;2023-04-24T01:08:56;7.45;;;4.07;;
73321;SDS011;61549;37.044;22.128;2023-04-24T01:11:24;6.20;;;4.45;;
73321;SDS011;61549;37.044;22.128;2023-04-24T01:13:50;7.03;;;4.50;;
73321;SDS011;61549;37.044;22.128;2023-04-24T01:16:17;8.32;;;4.40;;
73321;SDS011;61549;37.044;22.128;2023-04-24T01:18:45;7.60;;;4.63;;
73321;SDS011;61549;37.044;22.128;2023-04-24T01:21:12;7.20;;;4.75;;
73321;SDS011;61549;37.044;22.128;2023-04-24T01:23:41;8.40;;;4.50;;
73321;SDS011;61549;37.044;22.128;2023-04-24T01:26:08;5.80;;;4.15;;
73321;SDS011;61549;37.044;22.128;2023-04-24T01:28:34;6.05;;;4.60;;
73321;SDS011;61549;37.044;22.128;2023-04-24T01:31:00;6.85;;;4.10;;
73321;SDS011;61549;37.044;22.128;2023-04-24T01:33:26;6.63;;;4.38;;
73321;SDS011;61549;37.044;22.128;2023-04-24T01:35:52;6.30;;;4.43;;
73321;SDS011;61549;37.044;22.128;2023-04-24T01:38:18;5.90;;;4.00;;
73321;SDS011;61549;37.044;22.128;2023-04-24T01:40:44;6.32;;;4.30;;
73321;SDS011;61549;37.044;22.128;2023-04-24T01:43:11;5.53;;;4.10;;
73321;SDS011;61549;37.044;22.128;2023-04-24T01:45:38;6.60;;;4.30;;
73321;SDS011;61549;37.044;22.128;2023-04-24T01:48:03;6.60;;;4.03;;
73321;SDS011;61549;37.044;22.128;2023-04-24T01:50:30;6.63;;;4.25;;
73321;SDS011;61549;37.044;22.128;2023-04-24T01:52:58;5.30;;;4.22;;
73321;SDS011;61549;37.044;22.128;2023-04-24T01:55:24;5.88;;;4.30;;
73321;SDS011;61549;37.044;22.128;2023-04-24T01:57:49;6.25;;;4.50;;
73321;SDS011;61549;37.044;22.128;2023-04-24T02:00:17;7.93;;;4.35;;
73321;SDS011;61549;37.044;22.128;2023-04-24T02:02:43;4.68;;;4.15;;
73321;SDS011;61549;37.044;22.128;2023-04-24T02:05:09;8.55;;;4.55;;
73321;SDS011;61549;37.044;22.128;2023-04-24T02:07:36;7.28;;;4.78;;
73321;SDS011;61549;37.044;22.128;2023-04-24T02:10:02;7.53;;;4.45;;
73321;SDS011;61549;37.044;22.128;2023-04-24T02:12:29;6.07;;;4.32;;
73321;SDS011;61549;37.044;22.128;2023-04-24T02:14:55;7.65;;;4.28;;
73321;SDS011;61549;37.044;22.128;2023-04-24T02:17:21;6.38;;;4.43;;
73321;SDS011;61549;37.044;22.128;2023-04-24T02:19:47;7.35;;;4.47;;
73321;SDS011;61549;37.044;22.128;2023-04-24T02:22:13;7.18;;;4.70;;
73321;SDS011;61549;37.044;22.128;2023-04-24T02:24:39;6.57;;;4.60;;
73321;SDS011;61549;37.044;22.128;2023-04-24T02:27:05;5.45;;;4.47;;
73321;SDS011;61549;37.044;22.128;2023-04-24T02:29:31;7.82;;;5.00;;
73321;SDS011;61549;37.044;22.128;2023-04-24T02:32:04;9.65;;;4.38;;
73321;SDS011;61549;37.044;22.128;2023-04-24T02:34:30;6.68;;;4.30;;
73321;SDS011;61549;37.044;22.128;2023-04-24T02:36:56;7.00;;;4.60;;
73321;SDS011;61549;37.044;22.128;2023-04-24T02:39:22;7.00;;;4.35;;
73321;SDS011;61549;37.044;22.128;2023-04-24T02:41:48;7.97;;;4.63;;
73321;SDS011;61549;37.044;22.128;2023-04-24T02:44:13;6.85;;;4.30;;
73321;SDS011;61549;37.044;22.128;2023-04-24T02:46:39;5.65;;;4.28;;
73321;SDS011;61549;37.044;22.128;2023-04-24T02:49:06;5.45;;;4.20;;
73321;SDS011;61549;37.044;22.128;2023-04-24T02:51:32;7.30;;;4.70;;
73321;SDS011;61549;37.044;22.128;2023-04-24T02:53:58;7.07;;;4.57;;
73321;SDS011;61549;37.044;22.128;2023-04-24T02:56:24;6.05;;;4.72;;
73321;SDS011;61549;37.044;22.128;2023-04-24T02:58:50;6.15;;;4.50;;
73321;SDS011;61549;37.044;22.128;2023-04-24T03:01:16;5.40;;;4.68;;
73321;SDS011;61549;37.044;22.128;2023-04-24T03:03:42;8.02;;;4.40;;
73321;SDS011;61549;37.044;22.128;2023-04-24T03:06:08;7.72;;;4.53;;
73321;SDS011;61549;37.044;22.128;2023-04-24T03:08:34;6.53;;;4.45;;
73321;SDS011;61549;37.044;22.128;2023-04-24T03:11:00;7.88;;;4.32;;
73321;SDS011;61549;37.044;22.128;2023-04-24T03:13:26;7.60;;;4.65;;
73321;SDS011;61549;37.044;22.128;2023-04-24T03:15:52;6.28;;;4.45;;
73321;SDS011;61549;37.044;22.128;2023-04-24T03:18:19;7.80;;;4.50;;
73321;SDS011;61549;37.044;22.128;2023-04-24T03:20:47;6.57;;;4.47;;
73321;SDS011;61549;37.044;22.128;2023-04-24T03:23:14;6.35;;;4.45;;
73321;SDS011;61549;37.044;22.128;2023-04-24T03:25:40;6.80;;;4.47;;
73321;SDS011;61549;37.044;22.128;2023-04-24T03:28:07;6.28;;;4.50;;
73321;SDS011;61549;37.044;22.128;2023-04-24T03:30:33;5.78;;;4.32;;
73321;SDS011;61549;37.044;22.128;2023-04-24T03:32:59;7.03;;;4.80;;
73321;SDS011;61549;37.044;22.128;2023-04-24T03:35:26;7.32;;;4.65;;
73321;SDS011;61549;37.044;22.128;2023-04-24T03:40:25;8.20;;;4.88;;
73321;SDS011;61549;37.044;22.128;2023-04-24T03:42:53;6.82;;;4.95;;
73321;SDS011;61549;37.044;22.128;2023-04-24T03:45:19;7.43;;;4.57;;
73321;SDS011;61549;37.044;22.128;2023-04-24T03:47:45;7.80;;;4.50;;
73321;SDS011;61549;37.044;22.128;2023-04-24T03:50:10;7.47;;;4.50;;
73321;SDS011;61549;37.044;22.128;2023-04-24T03:52:36;8.15;;;4.65;;
73321;SDS011;61549;37.044;22.128;2023-04-24T03:55:02;10.55;;;4.70;;
73321;SDS011;61549;37.044;22.128;2023-04-24T03:57:28;5.88;;;4.78;;
73321;SDS011;61549;37.044;22.128;2023-04-24T03:59:54;9.88;;;4.93;;
73321;SDS011;61549;37.044;22.128;2023-04-24T04:02:20;8.60;;;4.88;;
73321;SDS011;61549;37.044;22.128;2023-04-24T04:04:46;7.72;;;5.20;;
73321;SDS011;61549;37.044;22.128;2023-04-24T04:07:11;8.15;;;5.47;;
73321;SDS011;61549;37.044;22.128;2023-04-24T04:09:37;9.05;;;5.43;;
73321;SDS011;61549;37.044;22.128;2023-04-24T04:12:03;9.30;;;5.47;;
73321;SDS011;61549;37.044;22.128;2023-04-24T04:14:29;7.70;;;5.50;;
73321;SDS011;61549;37.044;22.128;2023-04-24T04:16:55;6.32;;;4.80;;
73321;SDS011;61549;37.044;22.128;2023-04-24T04:19:21;8.50;;;5.30;;
73321;SDS011;61549;37.044;22.128;2023-04-24T04:21:47;7.60;;;5.28;;
73321;SDS011;61549;37.044;22.128;2023-04-24T04:24:18;7.50;;;5.47;;
73321;SDS011;61549;37.044;22.128;2023-04-24T04:26:46;7.40;;;5.00;;
73321;SDS011;61549;37.044;22.128;2023-04-24T04:29:12;7.90;;;5.05;;
73321;SDS011;61549;37.044;22.128;2023-04-24T04:31:38;7.15;;;4.82;;
73321;SDS011;61549;37.044;22.128;2023-04-24T04:34:05;8.18;;;4.97;;
73321;SDS011;61549;37.044;22.128;2023-04-24T04:36:31;7.60;;;4.70;;
73321;SDS011;61549;37.044;22.128;2023-04-24T04:38:56;6.30;;;4.85;;
73321;SDS011;61549;37.044;22.128;2023-04-24T04:41:24;7.15;;;4.68;;
73321;SDS011;61549;37.044;22.128;2023-04-24T04:43:50;8.68;;;4.97;;
73321;SDS011;61549;37.044;22.128;2023-04-24T04:49:09;9.15;;;5.35;;
73321;SDS011;61549;37.044;22.128;2023-04-24T04:51:36;6.53;;;4.70;;
73321;SDS011;61549;37.044;22.128;2023-04-24T04:54:02;6.30;;;4.97;;
73321;SDS011;61549;37.044;22.128;2023-04-24T04:59:35;8.00;;;5.10;;
73321;SDS011;61549;37.044;22.128;2023-04-24T05:02:00;7.53;;;5.32;;
73321;SDS011;61549;37.044;22.128;2023-04-24T05:04:26;6.47;;;5.22;;
73321;SDS011;61549;37.044;22.128;2023-04-24T05:06:54;7.32;;;5.50;;
73321;SDS011;61549;37.044;22.128;2023-04-24T05:09:20;13.32;;;6.32;;
73321;SDS011;61549;37.044;22.128;2023-04-24T05:11:46;12.07;;;7.57;;
73321;SDS011;61549;37.044;22.128;2023-04-24T05:14:12;12.77;;;7.45;;
73321;SDS011;61549;37.044;22.128;2023-04-24T05:16:38;13.05;;;7.85;;
73321;SDS011;61549;37.044;22.128;2023-04-24T05:19:04;12.73;;;9.10;;
73321;SDS011;61549;37.044;22.128;2023-04-24T05:24:04;14.25;;;8.77;;
73321;SDS011;61549;37.044;22.128;2023-04-24T05:26:30;13.75;;;9.10;;
73321;SDS011;61549;37.044;22.128;2023-04-24T05:29:08;14.25;;;8.77;;
73321;SDS011;61549;37.044;22.128;2023-04-24T05:31:34;17.55;;;8.75;;
73321;SDS011;61549;37.044;22.128;2023-04-24T05:34:00;14.73;;;8.80;;
73321;SDS011;61549;37.044;22.128;2023-04-24T05:36:26;14.20;;;9.00;;
73321;SDS011;61549;37.044;22.128;2023-04-24T05:38:52;16.33;;;9.30;;
73321;SDS011;61549;37.044;22.128;2023-04-24T05:41:18;10.77;;;7.68;;
73321;SDS011;61549;37.044;22.128;2023-04-24T05:43:43;9.73;;;6.70;;
73321;SDS011;61549;37.044;22.128;2023-04-24T05:46:09;11.32;;;6.40;;
73321;SDS011;61549;37.044;22.128;2023-04-24T05:48:36;9.23;;;6.18;;
73321;SDS011;61549;37.044;22.128;2023-04-24T05:51:02;8.45;;;5.75;;
73321;SDS011;61549;37.044;22.128;2023-04-24T05:53:28;8.20;;;5.50;;
73321;SDS011;61549;37.044;22.128;2023-04-24T05:55:54;7.68;;;5.65;;
73321;SDS011;61549;37.044;22.128;2023-04-24T06:01:02;12.98;;;9.20;;
73321;SDS011;61549;37.044;22.128;2023-04-24T06:03:28;10.20;;;8.00;;
73321;SDS011;61549;37.044;22.128;2023-04-24T06:05:54;13.98;;;8.50;;
73321;SDS011;61549;37.044;22.128;2023-04-24T06:08:20;13.40;;;8.95;;
73321;SDS011;61549;37.044;22.128;2023-04-24T06:10:46;16.80;;;9.48;;
73321;SDS011;61549;37.044;22.128;2023-04-24T06:13:12;12.27;;;8.50;;
73321;SDS011;61549;37.044;22.128;2023-04-24T06:15:37;11.50;;;7.90;;
73321;SDS011;61549;37.044;22.128;2023-04-24T06:18:03;13.88;;;9.70;;
73321;SDS011;61549;37.044;22.128;2023-04-24T06:20:29;12.93;;;8.75;;
73321;SDS011;61549;37.044;22.128;2023-04-24T06:22:55;13.45;;;9.90;;
73321;SDS011;61549;37.044;22.128;2023-04-24T06:25:21;15.70;;;10.20;;
73321;SDS011;61549;37.044;22.128;2023-04-24T06:27:47;10.85;;;8.18;;
73321;SDS011;61549;37.044;22.128;2023-04-24T06:30:13;16.50;;;9.82;;
73321;SDS011;61549;37.044;22.128;2023-04-24T06:32:39;14.98;;;9.63;;
73321;SDS011;61549;37.044;22.128;2023-04-24T06:35:05;17.10;;;10.23;;
73321;SDS011;61549;37.044;22.128;2023-04-24T06:43:13;24.63;;;15.77;;
73321;SDS011;61549;37.044;22.128;2023-04-24T06:45:39;23.85;;;15.90;;
73321;SDS011;61549;37.044;22.128;2023-04-24T06:48:05;22.50;;;15.35;;
73321;SDS011;61549;37.044;22.128;2023-04-24T06:50:31;23.33;;;14.88;;
73321;SDS011;61549;37.044;22.128;2023-04-24T06:52:57;24.42;;;15.35;;
73321;SDS011;61549;37.044;22.128;2023-04-24T06:55:23;25.10;;;16.17;;
73321;SDS011;61549;37.044;22.128;2023-04-24T06:57:48;24.77;;;15.32;;
73321;SDS011;61549;37.044;22.128;2023-04-24T07:00:14;20.25;;;14.48;;
73321;SDS011;61549;37.044;22.128;2023-04-24T07:02:41;21.77;;;12.63;;
73321;SDS011;61549;37.044;22.128;2023-04-24T07:05:06;21.30;;;14.88;;
73321;SDS011;61549;37.044;22.128;2023-04-24T07:07:33;21.70;;;14.80;;
73321;SDS011;61549;37.044;22.128;2023-04-24T07:09:59;20.40;;;14.95;;
73321;SDS011;61549;37.044;22.128;2023-04-24T07:12:25;20.27;;;12.73;;
73321;SDS011;61549;37.044;22.128;2023-04-24T07:14:51;19.65;;;12.88;;
73321;SDS011;61549;37.044;22.128;2023-04-24T07:17:17;20.48;;;14.10;;
73321;SDS011;61549;37.044;22.128;2023-04-24T07:19:43;22.50;;;13.80;;
73321;SDS011;61549;37.044;22.128;2023-04-24T07:22:08;16.67;;;11.93;;
73321;SDS011;61549;37.044;22.128;2023-04-24T07:24:36;17.17;;;11.70;;
73321;SDS011;61549;37.044;22.128;2023-04-24T07:27:02;16.48;;;11.25;;
73321;SDS011;61549;37.044;22.128;2023-04-24T07:29:29;18.25;;;12.68;;
73321;SDS011;61549;37.044;22.128;2023-04-24T07:31:55;16.27;;;11.10;;
73321;SDS011;61549;37.044;22.128;2023-04-24T07:34:21;13.95;;;10.20;;
73321;SDS011;61549;37.044;22.128;2023-04-24T07:36:47;13.82;;;9.95;;
73321;SDS011;61549;37.044;22.128;2023-04-24T07:39:13;16.83;;;10.15;;
73321;SDS011;61549;37.044;22.128;2023-04-24T07:41:39;14.13;;;8.73;;
73321;SDS011;61549;37.044;22.128;2023-04-24T07:44:05;11.77;;;8.23;;
73321;SDS011;61549;37.044;22.128;2023-04-24T07:46:31;12.70;;;7.70;;
73321;SDS011;61549;37.044;22.128;2023-04-24T07:48:57;11.73;;;6.90;;
73321;SDS011;61549;37.044;22.128;2023-04-24T07:51:24;10.15;;;7.13;;
73321;SDS011;61549;37.044;22.128;2023-04-24T07:53:52;7.35;;;5.70;;
73321;SDS011;61549;37.044;22.128;2023-04-24T07:56:26;7.30;;;5.07;;
73321;SDS011;61549;37.044;22.128;2023-04-24T07:58:52;6.85;;;5.10;;
73321;SDS011;61549;37.044;22.128;2023-04-24T08:01:17;8.45;;;5.28;;
73321;SDS011;61549;37.044;22.128;2023-04-24T08:03:43;8.95;;;5.07;;
73321;SDS011;61549;37.044;22.128;2023-04-24T08:06:09;5.95;;;4.75;;
73321;SDS011;61549;37.044;22.128;2023-04-24T08:08:35;8.73;;;5.18;;
73321;SDS011;61549;37.044;22.128;2023-04-24T08:11:01;8.82;;;5.30;;
73321;SDS011;61549;37.044;22.128;2023-04-24T08:13:27;10.07;;;6.38;;
73321;SDS011;61549;37.044;22.128;2023-04-24T08:15:53;7.32;;;5.38;;
73321;SDS011;61549;37.044;22.128;2023-04-24T08:18:19;6.65;;;5.35;;
73321;SDS011;61549;37.044;22.128;2023-04-24T08:20:45;8.45;;;5.90;;
73321;SDS011;61549;37.044;22.128;2023-04-24T08:23:11;8.32;;;6.43;;
73321;SDS011;61549;37.044;22.128;2023-04-24T08:25:36;8.27;;;5.97;;
73321;SDS011;61549;37.044;22.128;2023-04-24T08:28:03;9.55;;;7.32;;
73321;SDS011;61549;37.044;22.128;2023-04-24T08:30:30;10.85;;;7.45;;
73321;SDS011;61549;37.044;22.128;2023-04-24T08:32:56;11.23;;;6.90;;
73321;SDS011;61549;37.044;22.128;2023-04-24T08:35:22;7.85;;;6.63;;
73321;SDS011;61549;37.044;22.128;2023-04-24T08:37:48;11.73;;;7.43;;
73321;SDS011;61549;37.044;22.128;2023-04-24T08:40:15;10.10;;;5.82;;
73321;SDS011;61549;37.044;22.128;2023-04-24T08:42:44;15.25;;;5.82;;
73321;SDS011;61549;37.044;22.128;2023-04-24T08:45:11;8.48;;;5.43;;
73321;SDS011;61549;37.044;22.128;2023-04-24T08:47:56;7.60;;;4.90;;
73321;SDS011;61549;37.044;22.128;2023-04-24T08:50:24;8.48;;;5.13;;
73321;SDS011;61549;37.044;22.128;2023-04-24T08:52:50;6.88;;;5.30;;
73321;SDS011;61549;37.044;22.128;2023-04-24T08:55:19;8.00;;;5.00;;
73321;SDS011;61549;37.044;22.128;2023-04-24T08:57:46;8.43;;;5.35;;
73321;SDS011;61549;37.044;22.128;2023-04-24T09:00:16;6.45;;;4.78;;
73321;SDS011;61549;37.044;22.128;2023-04-24T09:02:43;7.78;;;4.85;;
73321;SDS011;61549;37.044;22.128;2023-04-24T09:05:11;7.10;;;4.72;;
73321;SDS011;61549;37.044;22.128;2023-04-24T09:07:39;8.20;;;4.80;;
73321;SDS011;61549;37.044;22.128;2023-04-24T09:10:08;8.05;;;4.80;;
73321;SDS011;61549;37.044;22.128;2023-04-24T09:12:34;6.45;;;4.40;;
73321;SDS011;61549;37.044;22.128;2023-04-24T09:15:01;4.90;;;3.60;;
73321;SDS011;61549;37.044;22.128;2023-04-24T09:17:28;4.30;;;3.00;;
73321;SDS011;61549;37.044;22.128;2023-04-24T09:19:55;5.50;;;3.90;;
73321;SDS011;61549;37.044;22.128;2023-04-24T09:22:21;6.68;;;3.70;;
73321;SDS011;61549;37.044;22.128;2023-04-24T09:24:47;4.50;;;3.13;;
73321;SDS011;61549;37.044;22.128;2023-04-24T09:27:13;5.68;;;3.13;;
73321;SDS011;61549;37.044;22.128;2023-04-24T09:29:54;3.83;;;2.90;;
73321;SDS011;61549;37.044;22.128;2023-04-24T09:32:22;5.78;;;3.47;;
73321;SDS011;61549;37.044;22.128;2023-04-24T09:34:50;5.30;;;2.95;;
73321;SDS011;61549;37.044;22.128;2023-04-24T09:37:35;3.47;;;3.17;;
73321;SDS011;61549;37.044;22.128;2023-04-24T09:40:09;3.45;;;2.60;;
73321;SDS011;61549;37.044;22.128;2023-04-24T09:42:39;2.95;;;2.35;;
73321;SDS011;61549;37.044;22.128;2023-04-24T09:45:16;3.42;;;2.38;;
73321;SDS011;61549;37.044;22.128;2023-04-24T09:47:42;3.33;;;2.40;;
73321;SDS011;61549;37.044;22.128;2023-04-24T09:50:09;5.28;;;2.47;;
73321;SDS011;61549;37.044;22.128;2023-04-24T09:52:38;3.40;;;2.50;;
73321;SDS011;61549;37.044;22.128;2023-04-24T09:55:39;4.15;;;2.80;;
73321;SDS011;61549;37.044;22.128;2023-04-24T09:57:58;5.40;;;3.10;;
73321;SDS011;61549;37.044;22.128;2023-04-24T10:00:26;5.15;;;2.92;;
73321;SDS011;61549;37.044;22.128;2023-04-24T10:05:33;5.30;;;3.42;;
73321;SDS011;61549;37.044;22.128;2023-04-24T10:10:50;7.22;;;3.80;;
73321;SDS011;61549;37.044;22.128;2023-04-24T10:13:16;4.78;;;3.50;;
73321;SDS011;61549;37.044;22.128;2023-04-24T10:15:45;6.03;;;3.78;;
73321;SDS011;61549;37.044;22.128;2023-04-24T10:18:14;4.72;;;3.47;;
73321;SDS011;61549;37.044;22.128;2023-04-24T10:20:41;5.55;;;3.00;;
73321;SDS011;61549;37.044;22.128;2023-04-24T10:23:07;7.10;;;3.28;;
73321;SDS011;61549;37.044;22.128;2023-04-24T10:25:34;5.07;;;3.17;;
73321;SDS011;61549;37.044;22.128;2023-04-24T10:28:01;5.32;;;3.60;;
73321;SDS011;61549;37.044;22.128;2023-04-24T10:30:29;3.63;;;3.00;;
73321;SDS011;61549;37.044;22.128;2023-04-24T10:32:59;5.32;;;3.10;;
73321;SDS011;61549;37.044;22.128;2023-04-24T10:35:37;4.95;;;2.95;;
73321;SDS011;61549;37.044;22.128;2023-04-24T10:38:11;8.18;;;3.22;;
73321;SDS011;61549;37.044;22.128;2023-04-24T10:46:46;3.95;;;2.90;;
73321;SDS011;61549;37.044;22.128;2023-04-24T10:49:17;6.10;;;2.75;;
73321;SDS011;61549;37.044;22.128;2023-04-24T10:52:00;4.68;;;2.80;;
73321;SDS011;61549;37.044;22.128;2023-04-24T10:54:29;3.88;;;2.95;;
73321;SDS011;61549;37.044;22.128;2023-04-24T10:59:51;5.30;;;2.95;;
73321;SDS011;61549;37.044;22.128;2023-04-24T11:05:18;5.07;;;3.00;;
73321;SDS011;61549;37.044;22.128;2023-04-24T11:10:45;5.82;;;3.00;;
73321;SDS011;61549;37.044;22.128;2023-04-24T11:13:16;5.38;;;3.00;;
73321;SDS011;61549;37.044;22.128;2023-04-24T11:16:11;5.03;;;2.78;;
73321;SDS011;61549;37.044;22.128;2023-04-24T11:18:39;6.05;;;3.30;;
73321;SDS011;61549;37.044;22.128;2023-04-24T11:21:13;5.45;;;3.00;;
73321;SDS011;61549;37.044;22.128;2023-04-24T11:23:41;4.90;;;2.90;;
73321;SDS011;61549;37.044;22.128;2023-04-24T11:26:11;3.97;;;2.90;;
73321;SDS011;61549;37.044;22.128;2023-04-24T11:28:43;3.70;;;2.90;;
73321;SDS011;61549;37.044;22.128;2023-04-24T11:31:56;5.53;;;2.90;;
73321;SDS011;61549;37.044;22.128;2023-04-24T11:34:09;4.75;;;2.72;;
73321;SDS011;61549;37.044;22.128;2023-04-24T11:36:37;3.80;;;2.97;;
73321;SDS011;61549;37.044;22.128;2023-04-24T11:39:03;4.22;;;3.13;;
73321;SDS011;61549;37.044;22.128;2023-04-24T11:41:30;4.47;;;2.85;;
73321;SDS011;61549;37.044;22.128;2023-04-24T11:43:59;6.85;;;3.20;;
73321;SDS011;61549;37.044;22.128;2023-04-24T11:46:29;7.05;;;2.92;;
73321;SDS011;61549;37.044;22.128;2023-04-24T11:48:56;5.05;;;3.03;;
73321;SDS011;61549;37.044;22.128;2023-04-24T11:51:25;4.35;;;2.90;;
73321;SDS011;61549;37.044;22.128;2023-04-24T11:53:55;5.40;;;3.00;;
73321;SDS011;61549;37.044;22.128;2023-04-24T11:56:24;4.00;;;2.90;;
73321;SDS011;61549;37.044;22.128;2023-04-24T11:58:53;4.07;;;3.00;;
73321;SDS011;61549;37.044;22.128;2023-04-24T12:01:21;4.40;;;3.30;;
73321;SDS011;61549;37.044;22.128;2023-04-24T12:03:58;5.45;;;3.50;;
73321;SDS011;61549;37.044;22.128;2023-04-24T12:06:24;6.88;;;3.83;;
73321;SDS011;61549;37.044;22.128;2023-04-24T12:08:51;6.07;;;4.28;;
73321;SDS011;61549;37.044;22.128;2023-04-24T12:11:20;5.97;;;3.53;;
73321;SDS011;61549;37.044;22.128;2023-04-24T12:13:46;4.15;;;2.80;;
73321;SDS011;61549;37.044;22.128;2023-04-24T12:16:11;5.30;;;3.00;;
73321;SDS011;61549;37.044;22.128;2023-04-24T12:18:41;6.63;;;2.75;;
73321;SDS011;61549;37.044;22.128;2023-04-24T12:21:15;4.10;;;2.90;;
73321;SDS011;61549;37.044;22.128;2023-04-24T12:23:42;5.18;;;3.05;;
73321;SDS011;61549;37.044;22.128;2023-04-24T12:26:10;4.30;;;2.97;;
73321;SDS011;61549;37.044;22.128;2023-04-24T12:28:36;7.43;;;3.13;;
73321;SDS011;61549;37.044;22.128;2023-04-24T12:31:03;4.45;;;2.97;;
73321;SDS011;61549;37.044;22.128;2023-04-24T12:33:32;4.22;;;3.20;;
73321;SDS011;61549;37.044;22.128;2023-04-24T12:35:59;3.90;;;2.90;;
73321;SDS011;61549;37.044;22.128;2023-04-24T12:38:26;4.85;;;2.90;;
73321;SDS011;61549;37.044;22.128;2023-04-24T12:41:06;4.35;;;3.10;;
73321;SDS011;61549;37.044;22.128;2023-04-24T12:43:34;4.80;;;3.03;;
73321;SDS011;61549;37.044;22.128;2023-04-24T12:46:00;4.45;;;3.55;;
73321;SDS011;61549;37.044;22.128;2023-04-24T12:48:27;5.68;;;3.30;;
73321;SDS011;61549;37.044;22.128;2023-04-24T12:50:53;5.55;;;3.30;;
73321;SDS011;61549;37.044;22.128;2023-04-24T12:53:19;5.20;;;3.40;;
73321;SDS011;61549;37.044;22.128;2023-04-24T12:55:45;5.22;;;3.40;;
73321;SDS011;61549;37.044;22.128;2023-04-24T12:58:17;4.75;;;3.63;;
73321;SDS011;61549;37.044;22.128;2023-04-24T13:00:45;5.22;;;3.15;;
73321;SDS011;61549;37.044;22.128;2023-04-24T13:03:11;3.97;;;3.33;;
73321;SDS011;61549;37.044;22.128;2023-04-24T13:05:38;4.88;;;3.50;;
73321;SDS011;61549;37.044;22.128;2023-04-24T13:08:05;3.85;;;3.38;;
73321;SDS011;61549;37.044;22.128;2023-04-24T13:10:30;3.78;;;3.47;;
73321;SDS011;61549;37.044;22.128;2023-04-24T13:12:56;4.72;;;3.45;;
73321;SDS011;61549;37.044;22.128;2023-04-24T13:15:22;4.28;;;3.42;;
73321;SDS011;61549;37.044;22.128;2023-04-24T13:17:50;5.13;;;3.17;;
73321;SDS011;61549;37.044;22.128;2023-04-24T13:20:17;4.50;;;3.10;;
73321;SDS011;61549;37.044;22.128;2023-04-24T13:22:44;5.00;;;3.50;;
73321;SDS011;61549;37.044;22.128;2023-04-24T13:25:10;4.03;;;3.38;;
73321;SDS011;61549;37.044;22.128;2023-04-24T13:27:38;4.40;;;3.40;;
73321;SDS011;61549;37.044;22.128;2023-04-24T13:30:04;3.58;;;3.20;;
73321;SDS011;61549;37.044;22.128;2023-04-24T13:32:31;5.80;;;3.30;;
73321;SDS011;61549;37.044;22.128;2023-04-24T13:34:58;5.18;;;3.40;;
73321;SDS011;61549;37.044;22.128;2023-04-24T13:37:25;4.88;;;3.22;;
73321;SDS011;61549;37.044;22.128;2023-04-24T13:39:51;5.63;;;3.28;;
73321;SDS011;61549;37.044;22.128;2023-04-24T13:42:17;3.58;;;3.10;;
73321;SDS011;61549;37.044;22.128;2023-04-24T13:44:43;4.65;;;3.45;;
73321;SDS011;61549;37.044;22.128;2023-04-24T13:47:09;5.32;;;3.35;;
73321;SDS011;61549;37.044;22.128;2023-04-24T13:49:35;4.93;;;3.40;;
73321;SDS011;61549;37.044;22.128;2023-04-24T13:52:01;6.15;;;3.50;;
73321;SDS011;61549;37.044;22.128;2023-04-24T13:54:27;4.47;;;3.50;;
73321;SDS011;61549;37.044;22.128;2023-04-24T13:56:57;4.53;;;3.38;;
73321;SDS011;61549;37.044;22.128;2023-04-24T13:59:24;4.80;;;3.47;;
73321;SDS011;61549;37.044;22.128;2023-04-24T14:01:51;5.38;;;3.67;;
73321;SDS011;61549;37.044;22.128;2023-04-24T14:04:23;4.20;;;3.30;;
73321;SDS011;61549;37.044;22.128;2023-04-24T14:06:49;3.58;;;3.03;;
73321;SDS011;61549;37.044;22.128;2023-04-24T14:09:15;5.60;;;3.25;;
73321;SDS011;61549;37.044;22.128;2023-04-24T14:11:41;3.63;;;3.20;;
73321;SDS011;61549;37.044;22.128;2023-04-24T14:14:07;5.20;;;3.45;;
73321;SDS011;61549;37.044;22.128;2023-04-24T14:16:33;3.55;;;3.13;;
73321;SDS011;61549;37.044;22.128;2023-04-24T14:21:30;4.03;;;3.42;;
73321;SDS011;61549;37.044;22.128;2023-04-24T14:23:56;4.18;;;3.50;;
73321;SDS011;61549;37.044;22.128;2023-04-24T14:26:22;3.95;;;3.55;;
73321;SDS011;61549;37.044;22.128;2023-04-24T14:28:49;3.90;;;3.30;;
73321;SDS011;61549;37.044;22.128;2023-04-24T14:31:15;4.63;;;3.67;;
73321;SDS011;61549;37.044;22.128;2023-04-24T14:33:41;3.92;;;3.53;;
73321;SDS011;61549;37.044;22.128;2023-04-24T14:36:07;3.97;;;3.55;;
73321;SDS011;61549;37.044;22.128;2023-04-24T14:38:33;4.00;;;3.55;;
73321;SDS011;61549;37.044;22.128;2023-04-24T14:40:59;3.92;;;3.63;;
73321;SDS011;61549;37.044;22.128;2023-04-24T14:43:26;3.67;;;3.38;;
73321;SDS011;61549;37.044;22.128;2023-04-24T14:45:52;5.40;;;3.58;;
73321;SDS011;61549;37.044;22.128;2023-04-24T14:48:18;4.60;;;3.35;;
73321;SDS011;61549;37.044;22.128;2023-04-24T14:50:44;4.00;;;3.50;;
73321;SDS011;61549;37.044;22.128;2023-04-24T14:53:10;5.70;;;3.55;;
73321;SDS011;61549;37.044;22.128;2023-04-24T14:55:35;6.65;;;3.53;;
73321;SDS011;61549;37.044;22.128;2023-04-24T14:58:02;4.72;;;3.50;;
73321;SDS011;61549;37.044;22.128;2023-04-24T15:00:28;4.70;;;3.45;;
73321;SDS011;61549;37.044;22.128;2023-04-24T15:02:54;8.38;;;5.38;;
73321;SDS011;61549;37.044;22.128;2023-04-24T15:05:20;5.40;;;3.80;;
73321;SDS011;61549;37.044;22.128;2023-04-24T15:07:48;6.28;;;3.60;;
73321;SDS011;61549;37.044;22.128;2023-04-24T15:10:14;4.22;;;3.50;;
73321;SDS011;61549;37.044;22.128;2023-04-24T15:12:42;4.40;;;3.30;;